Time;durP1;ratioP1;P1;durP2;ratioP2;P2;SDS_P1;SDS_P2;PMS_P1;PMS_P2;Temp;Humidity;BMP_temperature;BMP_pressure;BME280_temperature;BME280_humidity;BME280_pressure;Samples;Min_cycle;Max_cycle;Signal;HPM_P1;HPM_P2
2023/06/15 00:09:03;;;;;;;;;;;20.30;66.80;;;;;;5029195;28;862;-68
2023/06/15 00:11:29;;;;;;;;;;;20.30;66.80;;;;;;5031347;28;883;-67
2023/06/15 00:13:54;;;;;;;;;;;20.30;66.80;;;;;;5028541;28;1276;-67
2023/06/15 00:16:20;;;;;;;;;;;20.30;66.80;;;;;;5031344;28;964;-67
2023/06/15 00:18:47;;;;;;;;;;;20.30;66.80;;;;;;5027810;28;903;-68
2023/06/15 00:21:15;;;;;;;;;;;20.30;66.90;;;;;;5031870;28;1910;-68
2023/06/15 00:23:41;;;;;;;;;;;20.30;66.80;;;;;;5027634;28;1274;-68
2023/06/15 00:26:06;;;;;;;;;;;20.30;66.80;;;;;;5028790;28;983;-67
2023/06/15 00:28:32;;;;;;;;;;;20.30;66.80;;;;;;5030766;28;1407;-68
2023/06/15 00:30:57;;;;;;;;;;;20.30;66.90;;;;;;5032254;28;820;-68
2023/06/15 00:33:23;;;;;;;;;;;20.30;67.60;;;;;;5030956;28;1361;-68
2023/06/15 00:35:48;;;;;;;;;;;20.30;66.90;;;;;;5031831;28;1268;-68
2023/06/15 00:38:14;;;;;;;;;;;20.30;66.90;;;;;;5030492;28;855;-68
2023/06/15 00:40:39;;;;;;;;;;;20.30;66.80;;;;;;5030447;28;1959;-67
2023/06/15 00:43:05;;;;;;;;;;;20.30;66.90;;;;;;5031327;28;832;-68
2023/06/15 00:45:30;;;;;;;;;;;20.30;66.90;;;;;;5025361;28;1242;-67
2023/06/15 00:47:56;;;;;;;;;;;20.30;66.90;;;;;;5031677;28;821;-68
2023/06/15 00:50:21;;;;;;;;;;;20.30;66.90;;;;;;5032353;28;900;-68
2023/06/15 00:52:48;;;;;;;;;;;20.30;66.90;;;;;;5032446;28;951;-68
2023/06/15 00:55:14;;;;;;;;;;;20.30;66.90;;;;;;5029454;28;1360;-68
2023/06/15 00:57:44;;;;;;;;;;;20.30;66.90;;;;;;5029680;28;836;-67
2023/06/15 01:00:14;;;;;;;;;;;20.30;66.90;;;;;;5031046;28;932;-67
2023/06/15 01:02:40;;;;;;;;;;;20.30;66.90;;;;;;5020028;28;1930;-68
2023/06/15 01:05:06;;;;;;;;;;;20.30;66.90;;;;;;5024868;28;1363;-68
2023/06/15 01:07:35;;;;;;;;;;;20.30;66.90;;;;;;5029750;28;1861;-68
2023/06/15 01:10:00;;;;;;;;;;;20.30;66.90;;;;;;5030931;28;894;-68
2023/06/15 01:12:28;;;;;;;;;;;20.30;66.90;;;;;;5032215;28;960;-67
2023/06/15 01:14:54;;;;;;;;;;;20.30;66.90;;;;;;5025540;28;1269;-67
2023/06/15 01:17:23;;;;;;;;;;;20.30;66.90;;;;;;5028814;28;994;-67
2023/06/15 01:20:03;;;;;;;;;;;20.30;66.90;;;;;;5030737;28;915;-68
2023/06/15 01:22:35;;;;;;;;;;;20.30;66.90;;;;;;5030723;28;1906;-68
2023/06/15 01:25:05;;;;;;;;;;;20.30;66.90;;;;;;5030531;28;1271;-67
2023/06/15 01:27:33;;;;;;;;;;;20.30;67.00;;;;;;5020699;28;1555;-67
2023/06/15 01:29:59;;;;;;;;;;;20.30;66.90;;;;;;5031148;28;928;-68
2023/06/15 01:32:25;;;;;;;;;;;20.30;67.00;;;;;;5028019;28;1261;-67
2023/06/15 01:34:51;;;;;;;;;;;20.30;67.00;;;;;;5031160;28;1437;-68
2023/06/15 01:37:16;;;;;;;;;;;20.30;67.00;;;;;;5030478;28;1053;-68
2023/06/15 01:39:42;;;;;;;;;;;20.30;67.00;;;;;;5030685;28;785;-67
2023/06/15 01:42:08;;;;;;;;;;;20.30;67.00;;;;;;5025420;28;1906;-68
2023/06/15 01:44:33;;;;;;;;;;;20.30;67.00;;;;;;5029335;28;1244;-67
2023/06/15 01:46:59;;;;;;;;;;;20.30;67.00;;;;;;5029248;28;859;-67
2023/06/15 01:49:24;;;;;;;;;;;20.30;67.00;;;;;;5030221;28;879;-68
2023/06/15 01:51:50;;;;;;;;;;;20.30;67.00;;;;;;5028758;28;876;-68
2023/06/15 01:54:15;;;;;;;;;;;20.30;67.00;;;;;;5028403;28;1271;-68
2023/06/15 01:56:41;;;;;;;;;;;20.30;67.00;;;;;;5028259;28;911;-67
2023/06/15 01:59:06;;;;;;;;;;;20.30;67.10;;;;;;5030083;28;787;-67
2023/06/15 02:01:32;;;;;;;;;;;20.30;67.00;;;;;;5026064;28;1907;-67
2023/06/15 02:03:57;;;;;;;;;;;20.30;67.00;;;;;;5025207;28;1243;-67
2023/06/15 02:06:22;;;;;;;;;;;20.30;67.00;;;;;;5029151;28;1011;-67
2023/06/15 02:08:49;;;;;;;;;;;20.30;67.00;;;;;;5028876;28;903;-67
2023/06/15 02:11:18;;;;;;;;;;;20.30;67.10;;;;;;5027987;28;820;-68
2023/06/15 02:13:44;;;;;;;;;;;20.30;67.00;;;;;;5028801;28;1279;-68
2023/06/15 02:16:11;;;;;;;;;;;20.30;67.00;;;;;;5027812;28;833;-68
2023/06/15 02:18:37;;;;;;;;;;;20.30;67.10;;;;;;5027821;28;941;-68
2023/06/15 02:21:02;;;;;;;;;;;20.30;67.10;;;;;;5030107;28;1910;-68
2023/06/15 02:23:28;;;;;;;;;;;20.30;67.00;;;;;;5029816;28;840;-68
2023/06/15 02:25:53;;;;;;;;;;;20.30;67.10;;;;;;5028212;28;1268;-68
2023/06/15 02:28:19;;;;;;;;;;;20.30;67.10;;;;;;5029855;28;1509;-68
2023/06/15 02:30:44;;;;;;;;;;;20.30;67.10;;;;;;5029234;28;884;-68
2023/06/15 02:33:10;;;;;;;;;;;20.30;67.10;;;;;;5028594;28;933;-68
2023/06/15 02:35:35;;;;;;;;;;;20.30;67.10;;;;;;5030545;28;1285;-68
2023/06/15 02:38:01;;;;;;;;;;;20.30;67.10;;;;;;5033155;28;875;-68
2023/06/15 02:40:26;;;;;;;;;;;20.30;67.10;;;;;;5029385;28;868;-68
2023/06/15 02:42:52;;;;;;;;;;;20.30;67.10;;;;;;5025646;28;2115;-68
2023/06/15 02:45:17;;;;;;;;;;;20.30;67.10;;;;;;5028985;28;1229;-68
2023/06/15 02:47:43;;;;;;;;;;;20.30;67.10;;;;;;5029871;28;816;-68
2023/06/15 02:50:09;;;;;;;;;;;20.30;67.10;;;;;;5012271;28;911;-68
2023/06/15 02:52:36;;;;;;;;;;;20.30;67.10;;;;;;5029742;28;860;-68
2023/06/15 02:55:02;;;;;;;;;;;20.30;67.10;;;;;;5029205;28;1355;-68
2023/06/15 02:57:27;;;;;;;;;;;20.30;67.10;;;;;;5027234;28;808;-68
2023/06/15 02:59:53;;;;;;;;;;;20.30;67.20;;;;;;5027850;28;842;-68
2023/06/15 03:02:22;;;;;;;;;;;20.30;67.10;;;;;;5029266;28;1926;-67
2023/06/15 03:04:48;;;;;;;;;;;20.30;67.20;;;;;;5029189;28;1283;-68
2023/06/15 03:07:16;;;;;;;;;;;20.30;67.20;;;;;;5029463;28;979;-68
2023/06/15 03:09:48;;;;;;;;;;;20.30;67.20;;;;;;5028173;28;860;-68
2023/06/15 03:12:13;;;;;;;;;;;20.30;67.20;;;;;;5027621;28;1077;-68
2023/06/15 03:14:39;;;;;;;;;;;20.30;67.20;;;;;;5025711;28;1376;-68
2023/06/15 03:17:04;;;;;;;;;;;20.30;67.20;;;;;;5027019;28;859;-67
2023/06/15 03:19:30;;;;;;;;;;;20.30;67.20;;;;;;5027233;28;786;-68
2023/06/15 03:21:57;;;;;;;;;;;20.30;67.20;;;;;;5022547;28;1898;-68
2023/06/15 03:24:23;;;;;;;;;;;20.30;67.20;;;;;;5024950;28;1269;-68
2023/06/15 03:26:49;;;;;;;;;;;20.30;67.20;;;;;;5027418;28;813;-68
2023/06/15 03:29:14;;;;;;;;;;;20.30;67.20;;;;;;5029510;28;1124;-68
2023/06/15 03:31:43;;;;;;;;;;;20.30;67.20;;;;;;5028355;28;792;-68
2023/06/15 03:34:08;;;;;;;;;;;20.30;67.20;;;;;;5027174;28;1550;-68
2023/06/15 03:36:35;;;;;;;;;;;20.30;67.20;;;;;;5027474;28;1895;-69
2023/06/15 03:39:01;;;;;;;;;;;20.30;67.20;;;;;;5029191;28;1928;-73
2023/06/15 03:41:27;;;;;;;;;;;20.30;67.20;;;;;;5029280;28;2009;-71
2023/06/15 03:43:53;;;;;;;;;;;20.30;67.20;;;;;;5028926;28;1273;-73
2023/06/15 03:46:18;;;;;;;;;;;20.30;67.20;;;;;;5028958;28;919;-73
2023/06/15 03:48:43;;;;;;;;;;;20.30;67.20;;;;;;5026231;28;896;-73
2023/06/15 03:51:09;;;;;;;;;;;20.30;67.20;;;;;;5027989;28;872;-70
2023/06/15 03:53:36;;;;;;;;;;;20.30;67.30;;;;;;5029707;28;1283;-70
2023/06/15 03:56:01;;;;;;;;;;;20.30;67.30;;;;;;5018641;28;875;-71
2023/06/15 03:58:27;;;;;;;;;;;20.30;67.30;;;;;;5025226;28;821;-72
2023/06/15 04:00:53;;;;;;;;;;;20.30;67.30;;;;;;5027553;28;1890;-69
2023/06/15 04:03:18;;;;;;;;;;;20.30;67.20;;;;;;5026701;28;1011;-72
2023/06/15 04:05:44;;;;;;;;;;;20.30;67.30;;;;;;5027739;28;1281;-72
2023/06/15 04:08:10;;;;;;;;;;;20.30;67.30;;;;;;5028833;28;867;-72
2023/06/15 04:10:36;;;;;;;;;;;20.30;67.30;;;;;;5011996;28;1402;-68
2023/06/15 04:13:01;;;;;;;;;;;20.30;67.30;;;;;;5026370;28;829;-71
2023/06/15 04:15:27;;;;;;;;;;;20.30;67.30;;;;;;5027912;28;1265;-72
2023/06/15 04:17:52;;;;;;;;;;;20.30;67.30;;;;;;5029607;28;886;-71
2023/06/15 04:20:19;;;;;;;;;;;20.30;67.30;;;;;;5025223;28;808;-69
2023/06/15 04:22:45;;;;;;;;;;;20.30;67.30;;;;;;5025658;28;1906;-72
2023/06/15 04:25:10;;;;;;;;;;;20.30;67.30;;;;;;5027909;28;1362;-71
2023/06/15 04:27:36;;;;;;;;;;;20.30;67.40;;;;;;5018951;28;994;-70
2023/06/15 04:30:02;;;;;;;;;;;20.30;67.30;;;;;;5025619;28;920;-71
2023/06/15 04:32:30;;;;;;;;;;;20.30;67.30;;;;;;5027157;28;820;-72
2023/06/15 04:35:05;;;;;;;;;;;20.30;67.30;;;;;;5017519;28;1268;-70
2023/06/15 04:37:32;;;;;;;;;;;20.30;67.40;;;;;;5028972;28;971;-68
2023/06/15 04:39:59;;;;;;;;;;;20.30;67.30;;;;;;5025930;28;881;-69
2023/06/15 04:42:26;;;;;;;;;;;20.30;67.40;;;;;;5028770;28;1914;-68
2023/06/15 04:44:52;;;;;;;;;;;20.30;67.40;;;;;;5028042;28;1237;-68
2023/06/15 04:47:18;;;;;;;;;;;20.30;67.40;;;;;;5024298;28;1003;-68
2023/06/15 04:49:44;;;;;;;;;;;20.30;67.40;;;;;;5028102;28;852;-67
2023/06/15 04:52:10;;;;;;;;;;;20.30;67.40;;;;;;5023731;28;871;-67
2023/06/15 04:54:35;;;;;;;;;;;20.30;67.40;;;;;;5027526;28;1343;-68
2023/06/15 04:57:01;;;;;;;;;;;20.30;67.40;;;;;;5026766;28;825;-67
2023/06/15 04:59:27;;;;;;;;;;;20.30;67.40;;;;;;5029974;28;798;-67
2023/06/15 05:01:52;;;;;;;;;;;20.30;67.40;;;;;;5029929;28;1898;-67
2023/06/15 05:04:19;;;;;;;;;;;20.30;67.40;;;;;;5030724;28;1255;-67
2023/06/15 05:06:45;;;;;;;;;;;20.30;67.40;;;;;;5028536;28;863;-69
2023/06/15 05:09:11;;;;;;;;;;;20.30;67.40;;;;;;5029841;28;1503;-68
2023/06/15 05:11:36;;;;;;;;;;;20.30;67.40;;;;;;5029092;28;1074;-68
2023/06/15 05:14:03;;;;;;;;;;;20.30;67.40;;;;;;5027869;28;1269;-68
2023/06/15 05:16:30;;;;;;;;;;;20.30;67.50;;;;;;5031971;28;1116;-68
2023/06/15 05:18:56;;;;;;;;;;;20.30;67.40;;;;;;5031137;28;1146;-68
2023/06/15 05:21:22;;;;;;;;;;;20.20;67.40;;;;;;5030911;28;1965;-68
2023/06/15 05:23:47;;;;;;;;;;;20.30;67.40;;;;;;5045668;28;1698;-67
2023/06/15 05:26:13;;;;;;;;;;;20.30;67.30;;;;;;5024608;28;1041;-68
2023/06/15 05:28:39;;;;;;;;;;;20.30;67.10;;;;;;5029052;28;1446;-68
2023/06/15 05:31:08;;;;;;;;;;;20.30;66.70;;;;;;5030385;28;1238;-68
2023/06/15 05:33:34;;;;;;;;;;;20.30;66.70;;;;;;5030134;28;1315;-68
2023/06/15 05:35:59;;;;;;;;;;;20.30;66.30;;;;;;5030136;28;1233;-68
2023/06/15 05:38:26;;;;;;;;;;;20.30;66.00;;;;;;5027054;28;838;-68
2023/06/15 05:40:51;;;;;;;;;;;20.30;65.70;;;;;;5023535;28;1902;-68
2023/06/15 05:43:17;;;;;;;;;;;20.30;65.40;;;;;;5028241;28;879;-68
2023/06/15 05:45:42;;;;;;;;;;;20.30;65.40;;;;;;5031282;28;1457;-69
2023/06/15 05:48:08;;;;;;;;;;;20.30;65.50;;;;;;5029039;28;899;-68
2023/06/15 05:50:35;;;;;;;;;;;20.30;65.10;;;;;;5028585;28;862;-67
2023/06/15 05:53:00;;;;;;;;;;;20.30;65.00;;;;;;5029585;28;856;-67
2023/06/15 05:55:26;;;;;;;;;;;20.30;64.90;;;;;;5029535;28;1359;-69
2023/06/15 05:57:51;;;;;;;;;;;20.30;64.60;;;;;;5029848;28;840;-67
2023/06/15 06:00:17;;;;;;;;;;;20.30;64.50;;;;;;5029935;28;880;-68
2023/06/15 06:02:42;;;;;;;;;;;20.30;64.50;;;;;;5029215;28;1910;-69
2023/06/15 06:05:08;;;;;;;;;;;20.30;64.40;;;;;;5030393;28;1253;-68
2023/06/15 06:07:33;;;;;;;;;;;20.30;64.40;;;;;;5027148;28;970;-68
2023/06/15 06:09:59;;;;;;;;;;;20.30;64.40;;;;;;5025040;28;759;-67
2023/06/15 06:12:24;;;;;;;;;;;20.30;64.30;;;;;;5029499;28;832;-68
2023/06/15 06:14:50;;;;;;;;;;;20.30;64.50;;;;;;5028835;28;1347;-69
2023/06/15 06:17:15;;;;;;;;;;;20.30;64.40;;;;;;5025151;28;911;-67
2023/06/15 06:19:41;;;;;;;;;;;20.30;64.30;;;;;;5030346;28;804;-68
2023/06/15 06:22:06;;;;;;;;;;;20.30;64.30;;;;;;5030783;28;1981;-68
2023/06/15 06:24:32;;;;;;;;;;;20.30;63.90;;;;;;5030501;28;1345;-68
2023/06/15 06:26:57;;;;;;;;;;;20.30;63.90;;;;;;5029296;28;1595;-68
2023/06/15 06:29:23;;;;;;;;;;;20.30;63.90;;;;;;5029482;28;812;-68
2023/06/15 06:31:48;;;;;;;;;;;20.30;64.00;;;;;;5028003;28;915;-67
2023/06/15 06:34:14;;;;;;;;;;;20.30;63.70;;;;;;5029789;28;1205;-68
2023/06/15 06:36:39;;;;;;;;;;;20.30;63.50;;;;;;5025399;28;1272;-68
2023/06/15 06:39:05;;;;;;;;;;;20.30;63.40;;;;;;5029107;28;871;-67
2023/06/15 06:41:30;;;;;;;;;;;20.30;63.20;;;;;;5018154;28;1902;-68
2023/06/15 06:43:56;;;;;;;;;;;20.30;63.10;;;;;;5028890;28;1264;-68
2023/06/15 06:46:22;;;;;;;;;;;20.30;62.80;;;;;;5030836;28;916;-68
2023/06/15 06:48:48;;;;;;;;;;;20.30;63.10;;;;;;5028536;28;859;-68
2023/06/15 06:51:13;;;;;;;;;;;20.30;63.40;;;;;;5028101;28;2145;-67
2023/06/15 06:53:39;;;;;;;;;;;20.30;63.50;;;;;;5028708;28;1370;-68
2023/06/15 06:56:04;;;;;;;;;;;20.30;62.70;;;;;;5027732;28;1447;-68
2023/06/15 06:58:30;;;;;;;;;;;20.30;63.50;;;;;;5028667;28;883;-68
2023/06/15 07:00:55;;;;;;;;;;;20.30;62.80;;;;;;5027455;28;1898;-68
2023/06/15 07:03:21;;;;;;;;;;;20.30;63.10;;;;;;5028168;28;829;-68
2023/06/15 07:05:47;;;;;;;;;;;20.30;63.50;;;;;;5027906;28;1359;-67
2023/06/15 07:08:13;;;;;;;;;;;20.30;63.60;;;;;;5027941;28;840;-69
2023/06/15 07:10:38;;;;;;;;;;;20.30;63.70;;;;;;5027402;28;876;-68
2023/06/15 07:13:04;;;;;;;;;;;20.30;63.70;;;;;;5029193;28;1878;-68
2023/06/15 07:15:31;;;;;;;;;;;20.30;63.70;;;;;;5026159;28;1374;-68
2023/06/15 07:17:57;;;;;;;;;;;20.30;64.30;;;;;;5026862;28;1336;-68
2023/06/15 07:20:23;;;;;;;;;;;20.30;64.70;;;;;;5028424;28;1257;-68
2023/06/15 07:22:48;;;;;;;;;;;20.30;64.90;;;;;;5028221;28;2018;-68
2023/06/15 07:25:13;;;;;;;;;;;20.30;65.30;;;;;;5028543;28;1680;-68
2023/06/15 07:27:39;;;;;;;;;;;20.40;65.40;;;;;;5027087;28;1472;-68
2023/06/15 07:30:05;;;;;;;;;;;20.40;65.80;;;;;;5026424;28;1329;-68
2023/06/15 07:32:30;;;;;;;;;;;20.50;66.10;;;;;;5027047;28;1363;-68
2023/06/15 07:34:56;;;;;;;;;;;20.50;65.90;;;;;;5026973;28;1334;-68
2023/06/15 07:37:21;;;;;;;;;;;20.50;66.10;;;;;;5027079;28;1328;-68
2023/06/15 07:39:47;;;;;;;;;;;20.50;66.30;;;;;;5025271;28;1413;-68
2023/06/15 07:42:13;;;;;;;;;;;20.60;66.50;;;;;;5023461;28;1967;-69
2023/06/15 07:44:38;;;;;;;;;;;20.60;66.60;;;;;;5025704;28;1377;-69
2023/06/15 07:47:06;;;;;;;;;;;20.60;66.50;;;;;;5026072;28;1349;-68
2023/06/15 07:49:31;;;;;;;;;;;20.60;66.80;;;;;;5027111;28;1378;-69
2023/06/15 07:51:57;;;;;;;;;;;20.60;67.10;;;;;;5027626;28;848;-68
2023/06/15 07:54:22;;;;;;;;;;;20.60;66.90;;;;;;5027961;28;1269;-68
2023/06/15 07:56:48;;;;;;;;;;;20.60;66.80;;;;;;5026051;28;979;-68
2023/06/15 07:59:13;;;;;;;;;;;20.60;66.90;;;;;;5022709;28;1049;-69
2023/06/15 08:01:38;;;;;;;;;;;20.70;67.00;;;;;;5029237;28;1976;-68
2023/06/15 08:04:04;;;;;;;;;;;20.60;66.90;;;;;;5027042;28;1258;-68
2023/06/15 08:06:30;;;;;;;;;;;20.60;67.00;;;;;;5024132;28;796;-68
2023/06/15 08:08:56;;;;;;;;;;;20.70;67.10;;;;;;5023913;28;848;-68
2023/06/15 08:11:21;;;;;;;;;;;20.70;67.20;;;;;;5025756;28;854;-68
2023/06/15 08:13:47;;;;;;;;;;;20.60;67.20;;;;;;5028185;28;1335;-68
2023/06/15 08:16:12;;;;;;;;;;;20.70;67.30;;;;;;5029349;28;1392;-68
2023/06/15 08:18:38;;;;;;;;;;;20.60;67.30;;;;;;5028723;28;816;-68
2023/06/15 08:21:03;;;;;;;;;;;20.60;67.30;;;;;;5027115;28;1899;-68
2023/06/15 08:23:29;;;;;;;;;;;20.60;67.40;;;;;;5024981;28;1066;-68
2023/06/15 08:25:54;;;;;;;;;;;20.60;67.50;;;;;;5027206;28;1260;-68
2023/06/15 08:28:20;;;;;;;;;;;20.60;67.60;;;;;;5027085;28;1560;-68
2023/06/15 08:30:45;;;;;;;;;;;20.60;67.70;;;;;;5024865;28;916;-68
2023/06/15 08:33:11;;;;;;;;;;;20.60;67.70;;;;;;5030830;28;1242;-68
2023/06/15 08:35:37;;;;;;;;;;;20.60;67.90;;;;;;5028954;28;1366;-68
2023/06/15 08:38:02;;;;;;;;;;;20.60;68.10;;;;;;5031375;28;2114;-68
2023/06/15 08:40:28;;;;;;;;;;;20.70;68.70;;;;;;5030123;28;1487;-68
2023/06/15 08:42:53;;;;;;;;;;;20.70;69.00;;;;;;5030876;28;1963;-68
2023/06/15 08:45:18;;;;;;;;;;;20.70;69.00;;;;;;5032115;28;1294;-68
2023/06/15 08:47:44;;;;;;;;;;;20.70;69.20;;;;;;5032340;28;1434;-68
2023/06/15 08:50:10;;;;;;;;;;;20.70;69.40;;;;;;5031368;28;1191;-68
2023/06/15 08:52:35;;;;;;;;;;;20.70;69.50;;;;;;5027617;28;2192;-68
2023/06/15 08:55:01;;;;;;;;;;;20.70;69.40;;;;;;5028647;28;1968;-69
2023/06/15 08:57:32;;;;;;;;;;;20.70;69.20;;;;;;5029306;28;1289;-69
2023/06/15 08:59:58;;;;;;;;;;;20.70;69.40;;;;;;5030812;28;1251;-69
2023/06/15 09:02:24;;;;;;;;;;;20.80;69.90;;;;;;5031358;28;1981;-70
2023/06/15 09:04:52;;;;;;;;;;;20.80;69.80;;;;;;5031766;28;1326;-70
2023/06/15 09:07:21;;;;;;;;;;;20.80;69.70;;;;;;5031606;28;795;-69
2023/06/15 09:10:09;;;;;;;;;;;20.80;70.30;;;;;;5029938;28;939;-69
2023/06/15 09:12:40;;;;;;;;;;;20.80;69.30;;;;;;5024223;28;1135;-69
2023/06/15 09:15:07;;;;;;;;;;;20.80;69.20;;;;;;5030174;28;1260;-69
2023/06/15 09:17:35;;;;;;;;;;;20.80;69.10;;;;;;5028199;28;883;-68
2023/06/15 09:20:01;;;;;;;;;;;20.80;69.20;;;;;;5027531;28;892;-69
2023/06/15 09:22:26;;;;;;;;;;;20.80;69.10;;;;;;5032036;28;1914;-69
2023/06/15 09:24:51;;;;;;;;;;;20.80;69.10;;;;;;5029984;28;1338;-69
2023/06/15 09:27:17;;;;;;;;;;;20.80;69.10;;;;;;5027651;28;1076;-69
2023/06/15 09:30:02;;;;;;;;;;;20.80;69.10;;;;;;5031138;28;1333;-68
2023/06/15 09:32:28;;;;;;;;;;;20.80;69.10;;;;;;5030752;28;1417;-68
2023/06/15 09:35:00;;;;;;;;;;;20.80;69.10;;;;;;5030350;28;1229;-70
2023/06/15 09:37:28;;;;;;;;;;;20.80;69.10;;;;;;5030495;28;891;-68
2023/06/15 09:39:53;;;;;;;;;;;20.80;69.20;;;;;;5029797;28;950;-68
2023/06/15 09:42:26;;;;;;;;;;;20.90;69.30;;;;;;5030442;28;2005;-69
2023/06/15 09:44:58;;;;;;;;;;;20.90;69.40;;;;;;5027760;28;1239;-68
2023/06/15 09:47:27;;;;;;;;;;;20.90;69.90;;;;;;5030266;28;832;-69
2023/06/15 09:49:53;;;;;;;;;;;20.90;69.90;;;;;;5031071;28;887;-68
2023/06/15 09:52:18;;;;;;;;;;;20.90;69.90;;;;;;5028870;28;950;-68
2023/06/15 09:54:43;;;;;;;;;;;20.90;69.90;;;;;;5025345;28;1212;-68
2023/06/15 09:57:09;;;;;;;;;;;20.90;70.00;;;;;;5026994;28;1201;-68
2023/06/15 09:59:34;;;;;;;;;;;20.90;70.00;;;;;;5030920;28;940;-68
2023/06/15 10:02:00;;;;;;;;;;;20.90;70.20;;;;;;5025490;28;1898;-68
2023/06/15 10:04:28;;;;;;;;;;;20.90;70.20;;;;;;5022565;28;1217;-68
2023/06/15 10:07:03;;;;;;;;;;;20.90;70.10;;;;;;5030842;28;941;-68
2023/06/15 10:09:44;;;;;;;;;;;20.90;70.10;;;;;;5030011;28;828;-68
2023/06/15 10:12:15;;;;;;;;;;;20.90;70.30;;;;;;5029155;28;872;-68
2023/06/15 10:14:45;;;;;;;;;;;20.90;70.50;;;;;;5028783;28;1327;-68
2023/06/15 10:17:11;;;;;;;;;;;20.90;70.50;;;;;;5030591;28;1109;-68
2023/06/15 10:19:40;;;;;;;;;;;20.90;70.50;;;;;;5021389;28;889;-68
2023/06/15 10:22:07;;;;;;;;;;;20.90;70.40;;;;;;5028555;28;1977;-68
2023/06/15 10:24:33;;;;;;;;;;;20.90;70.60;;;;;;5027021;28;1389;-69
2023/06/15 10:26:59;;;;;;;;;;;20.90;71.00;;;;;;5030319;28;1710;-69
2023/06/15 10:29:25;;;;;;;;;;;21.00;71.10;;;;;;5027632;28;904;-69
2023/06/15 10:31:54;;;;;;;;;;;21.00;71.10;;;;;;5025246;28;1367;-68
2023/06/15 10:34:28;;;;;;;;;;;21.00;71.00;;;;;;5029796;28;1414;-68
2023/06/15 10:37:08;;;;;;;;;;;21.00;70.70;;;;;;5029963;28;1025;-68
2023/06/15 10:39:35;;;;;;;;;;;21.00;70.40;;;;;;5023804;28;2159;-67
2023/06/15 10:42:08;;;;;;;;;;;21.00;70.30;;;;;;5028686;28;1909;-67
2023/06/15 10:44:33;;;;;;;;;;;21.00;70.20;;;;;;5028526;28;1885;-68
2023/06/15 10:47:05;;;;;;;;;;;21.00;70.20;;;;;;5026834;28;1453;-68
2023/06/15 10:49:31;;;;;;;;;;;21.00;70.20;;;;;;5025419;28;1418;-68
2023/06/15 10:51:56;;;;;;;;;;;21.00;70.20;;;;;;5024742;28;1296;-68
2023/06/15 10:54:27;;;;;;;;;;;21.00;70.30;;;;;;5027808;28;1327;-68
2023/06/15 10:56:53;;;;;;;;;;;21.00;70.40;;;;;;5028167;28;876;-68
2023/06/15 10:59:41;;;;;;;;;;;21.00;70.40;;;;;;5030027;28;840;-69
2023/06/15 11:02:25;;;;;;;;;;;21.00;70.50;;;;;;5028522;28;2000;-68
2023/06/15 11:04:51;;;;;;;;;;;21.00;70.60;;;;;;5029363;28;1220;-68
2023/06/15 11:07:17;;;;;;;;;;;20.90;70.70;;;;;;5029493;28;868;-69
2023/06/15 11:09:42;;;;;;;;;;;21.00;70.90;;;;;;5028802;28;1351;-68
2023/06/15 11:12:27;;;;;;;;;;;21.00;71.50;;;;;;5020011;28;829;-68
2023/06/15 11:14:52;;;;;;;;;;;21.00;72.10;;;;;;5028286;28;1245;-68
2023/06/15 11:17:20;;;;;;;;;;;21.00;72.20;;;;;;5028062;28;1388;-68
2023/06/15 11:19:46;;;;;;;;;;;21.00;72.10;;;;;;5027766;28;1070;-68
2023/06/15 11:22:11;;;;;;;;;;;21.00;72.20;;;;;;5028623;28;1910;-68
2023/06/15 11:24:37;;;;;;;;;;;21.10;72.50;;;;;;5022280;28;1231;-68
2023/06/15 11:27:08;;;;;;;;;;;21.10;72.50;;;;;;5028705;28;1763;-68
2023/06/15 11:29:38;;;;;;;;;;;21.10;72.40;;;;;;5028115;28;856;-68
2023/06/15 11:32:03;;;;;;;;;;;21.10;72.30;;;;;;5027799;28;1239;-68
2023/06/15 11:34:29;;;;;;;;;;;21.20;72.30;;;;;;5024426;28;1249;-68
2023/06/15 11:37:01;;;;;;;;;;;21.20;72.20;;;;;;5027831;28;909;-68
2023/06/15 11:39:27;;;;;;;;;;;21.20;72.10;;;;;;5027505;28;958;-68
2023/06/15 11:41:56;;;;;;;;;;;21.20;72.00;;;;;;5026578;28;1902;-68
2023/06/15 11:44:22;;;;;;;;;;;21.20;71.80;;;;;;5021737;28;1330;-68
2023/06/15 11:46:51;;;;;;;;;;;21.20;71.40;;;;;;5024995;28;880;-68
2023/06/15 11:49:16;;;;;;;;;;;21.20;71.20;;;;;;5026007;28;947;-68
2023/06/15 11:51:46;;;;;;;;;;;21.20;71.50;;;;;;5026905;28;1086;-68
2023/06/15 11:54:12;;;;;;;;;;;21.10;71.60;;;;;;5027437;28;1223;-68
2023/06/15 11:56:43;;;;;;;;;;;21.10;71.60;;;;;;5014994;28;958;-68
2023/06/15 11:59:09;;;;;;;;;;;21.10;71.70;;;;;;5027267;28;997;-68
2023/06/15 12:01:37;;;;;;;;;;;21.10;72.50;;;;;;5024969;28;1973;-69
2023/06/15 12:04:06;;;;;;;;;;;21.10;71.80;;;;;;5025828;28;1364;-67
2023/06/15 12:06:32;;;;;;;;;;;21.10;71.70;;;;;;5030027;28;1356;-67
2023/06/15 12:08:57;;;;;;;;;;;21.10;70.60;;;;;;5032498;28;967;-67
2023/06/15 12:11:23;;;;;;;;;;;21.00;69.70;;;;;;5031530;28;914;-67
2023/06/15 12:13:49;;;;;;;;;;;21.00;69.50;;;;;;5032675;28;1246;-67
2023/06/15 12:16:14;;;;;;;;;;;21.00;69.40;;;;;;5029674;28;2043;-67
2023/06/15 12:18:40;;;;;;;;;;;20.90;69.20;;;;;;5030465;28;1343;-67
2023/06/15 12:21:05;;;;;;;;;;;20.90;69.20;;;;;;5028857;28;1970;-67
2023/06/15 12:23:31;;;;;;;;;;;20.90;69.20;;;;;;5029814;28;1080;-67
2023/06/15 12:25:57;;;;;;;;;;;20.90;69.20;;;;;;5031477;28;1206;-67
2023/06/15 12:28:23;;;;;;;;;;;20.80;69.10;;;;;;5031079;28;910;-67
2023/06/15 12:30:49;;;;;;;;;;;20.80;68.90;;;;;;5026686;28;914;-67
2023/06/15 12:33:29;;;;;;;;;;;20.80;68.80;;;;;;5029879;28;1245;-67
2023/06/15 12:35:55;;;;;;;;;;;20.80;68.80;;;;;;5028348;28;1263;-67
2023/06/15 12:38:22;;;;;;;;;;;20.80;68.60;;;;;;5030892;28;887;-67
2023/06/15 12:40:48;;;;;;;;;;;20.80;68.50;;;;;;5019647;28;1910;-67
2023/06/15 12:43:14;;;;;;;;;;;20.70;68.30;;;;;;5030410;28;1902;-67
2023/06/15 12:45:40;;;;;;;;;;;20.70;68.30;;;;;;5032364;28;1242;-67
2023/06/15 12:48:05;;;;;;;;;;;20.70;68.20;;;;;;5032577;28;2068;-68
2023/06/15 12:50:31;;;;;;;;;;;20.70;68.10;;;;;;5030938;28;1263;-68
2023/06/15 12:52:57;;;;;;;;;;;20.70;68.10;;;;;;5031029;28;1466;-68
2023/06/15 12:55:23;;;;;;;;;;;20.70;68.10;;;;;;5031290;28;1518;-68
2023/06/15 12:57:48;;;;;;;;;;;20.70;68.00;;;;;;5030376;28;852;-68
2023/06/15 13:00:14;;;;;;;;;;;20.70;67.90;;;;;;5028996;28;797;-68
2023/06/15 13:02:40;;;;;;;;;;;20.70;67.80;;;;;;5028854;28;1894;-68
2023/06/15 13:05:05;;;;;;;;;;;20.70;67.70;;;;;;5030301;28;1279;-68
2023/06/15 13:07:32;;;;;;;;;;;20.70;67.60;;;;;;5028257;28;1059;-68
2023/06/15 13:09:58;;;;;;;;;;;20.70;67.80;;;;;;5030627;28;884;-68
2023/06/15 13:12:25;;;;;;;;;;;20.70;67.60;;;;;;5027544;28;855;-68
2023/06/15 13:14:51;;;;;;;;;;;20.70;67.50;;;;;;5031430;28;1335;-68
2023/06/15 13:17:16;;;;;;;;;;;20.70;67.40;;;;;;5031311;28;896;-69
2023/06/15 13:19:41;;;;;;;;;;;20.70;67.40;;;;;;5029644;28;875;-67
2023/06/15 13:22:07;;;;;;;;;;;20.70;67.40;;;;;;5030229;28;1938;-67
2023/06/15 13:24:34;;;;;;;;;;;20.70;67.30;;;;;;5029152;28;1379;-67
2023/06/15 13:27:01;;;;;;;;;;;20.70;67.40;;;;;;5028542;28;1366;-68
2023/06/15 13:29:26;;;;;;;;;;;20.70;67.40;;;;;;5029083;28;845;-68
2023/06/15 13:31:52;;;;;;;;;;;20.70;67.30;;;;;;5027518;28;950;-67
2023/06/15 13:34:17;;;;;;;;;;;20.60;67.40;;;;;;5028079;28;1243;-67
2023/06/15 13:36:43;;;;;;;;;;;20.60;67.30;;;;;;5030990;28;1007;-67
2023/06/15 13:39:09;;;;;;;;;;;20.60;67.40;;;;;;5029014;28;872;-68
2023/06/15 13:41:34;;;;;;;;;;;20.70;67.40;;;;;;5029800;28;1910;-67
2023/06/15 13:44:00;;;;;;;;;;;20.60;67.40;;;;;;5028716;28;1268;-67
2023/06/15 13:46:26;;;;;;;;;;;20.60;67.40;;;;;;5026967;28;820;-67
2023/06/15 13:48:52;;;;;;;;;;;20.60;67.40;;;;;;5029753;28;861;-66
2023/06/15 13:51:18;;;;;;;;;;;20.60;67.30;;;;;;5027832;28;848;-67
2023/06/15 13:53:43;;;;;;;;;;;20.60;67.40;;;;;;5028351;28;1319;-67
2023/06/15 13:56:08;;;;;;;;;;;20.60;67.40;;;;;;5031010;28;1050;-66
2023/06/15 13:58:34;;;;;;;;;;;20.60;67.40;;;;;;5029759;28;797;-67
2023/06/15 14:00:59;;;;;;;;;;;20.60;67.50;;;;;;5026056;28;899;-67
2023/06/15 14:03:25;;;;;;;;;;;20.60;67.60;;;;;;5027426;28;1074;-66
2023/06/15 14:05:51;;;;;;;;;;;20.60;67.60;;;;;;5030657;28;1361;-67
2023/06/15 14:08:16;;;;;;;;;;;20.60;67.40;;;;;;5027910;28;937;-67
2023/06/15 14:10:42;;;;;;;;;;;20.60;67.40;;;;;;5029515;28;837;-67
2023/06/15 14:13:07;;;;;;;;;;;20.60;67.30;;;;;;5029658;28;943;-67
2023/06/15 14:15:33;;;;;;;;;;;20.60;67.20;;;;;;5029575;28;1257;-67
2023/06/15 14:17:58;;;;;;;;;;;20.60;67.10;;;;;;5028953;28;1274;-67
2023/06/15 14:20:24;;;;;;;;;;;20.60;67.10;;;;;;5028823;28;831;-66
2023/06/15 14:22:50;;;;;;;;;;;20.60;67.20;;;;;;5030581;28;1965;-67
2023/06/15 14:25:15;;;;;;;;;;;20.60;67.00;;;;;;5029015;28;1233;-67
2023/06/15 14:27:45;;;;;;;;;;;20.60;66.90;;;;;;5027829;28;1100;-67
2023/06/15 14:30:11;;;;;;;;;;;20.60;67.00;;;;;;5028891;28;905;-67
2023/06/15 14:32:37;;;;;;;;;;;20.60;67.10;;;;;;5029603;28;1250;-67
2023/06/15 14:35:03;;;;;;;;;;;20.60;67.00;;;;;;5029142;28;1336;-67
2023/06/15 14:37:29;;;;;;;;;;;20.60;66.80;;;;;;5027823;28;868;-67
2023/06/15 14:39:54;;;;;;;;;;;20.60;66.90;;;;;;5027815;28;925;-67